Terminal Aerodrome Forecast
Issued by NWS Tiyan, Guam

Current Version | Previous Version | Text Only | Print | Product List | Glossary On
Versions: 1 2 3 4 5 6 7 8 9 10 11 12 13 14 15 16 17 18 19 20 21 22 23 24 25 26 27 28 29 30 31 32 33 34 35 36 37 38 39 40
000
FTPQ31 PGUM 291700
TAFPQ
TAF
PGUM 291720Z 2918/3024 30020G32KT 6SM SHRA SCT009 BKN020 OVC080
     FM292300 26030G40KT 3SM +SHRA SCT007 OVC020
     FM300600 23022G35KT 5SM SHRA SCT009 BKN020 OVC040
     FM301500 22018G30KT P6SM VCSH SCT010 BKN030 BKN080
     FM302300 19016G25KT P6SM VCSH SCT012 BKN030 BKN120=

USA.gov is the U.S. government's official web portal to all federal, state and local government web resources and services.